Ava, MO (65608)

2:51 AM CDT on July 26, 2016 (GMT -0500)
Huffmon Hollow | | Change Station

Elev 1214 ft 36.89 °N, 92.67 °W | Updated 5 minutes ago

Clear
Clear
74.7 °F
Feels Like 72 °F
N
0.0
Wind Variable Wind from ENE

Today
High -- | Low -- °F
--% Chance of Precip.
Yesterday
High -- | Low -- °F
Precip. -- in
Pressure 29.99 in
Visibility 10.0 miles
Clouds Clear
Heat Index 72 °F
Dew Point 74 °F
Humidity 99%
Rainfall 0.00 in
Snow Depth Not available.
6:11 AM 8:22 PM
Waning Gibbous, 57% visible
METAR KBPK 260653Z AUTO 10003KT 10SM CLR 23/22 A3001 RMK AO2 SLP153 T02330222 $
Pressure 29.99 in
Visibility 10.0 miles
Clouds Clear
Heat Index 72 °F
Dew Point 74 °F
Humidity 99%
Rainfall 0.00 in
Snow Depth Not available.
6:11 AM 8:22 PM
Waning Gibbous, 57% visible
METAR KBPK 260653Z AUTO 10003KT 10SM CLR 23/22 A3001 RMK AO2 SLP153 T02330222 $

10-Day Weather Forecast

Almanac

Astronomy

Jul. 26, 2016 Rise Set
Actual Time
Civil Twilight
Nautical Twilight
Astronomical Twilight
Moon
Length of Visible Light
Length of Day
Tomorrow will be .
, % of the Moon is Illuminated

Today's Extremes

State Highs State Lows

Community

WunderPhotos

Upload Photos

1,927,551 photos uploaded!

WunderBlog® & News

Nearby

Air Quality

  Air Quality AQ Index Pollutant
Not available.

Snow Depth

Station Depth Elevation

Earthquake Activity

City Distance Mag. Time & Date
Minimum magnitude displayed is 2.5.

Coastal Water Temperatures

Place Temperature

Stations

Nearby Weather Stations

Station Location Temp. Windchill Dew Point Humidity Wind Precip. Elev Updated Type
                   

Watches & Warnings

There are currently no watches in effect.